sensor_id;sensor_type;location;lat;lon;timestamp;temperature;humidity
18103;DHT22;9178;51.120;6.192;2024-03-29T00:01:56;8.60;99.90
18103;DHT22;9178;51.120;6.192;2024-03-29T00:04:22;8.60;99.90
18103;DHT22;9178;51.120;6.192;2024-03-29T00:06:58;8.60;99.90
18103;DHT22;9178;51.120;6.192;2024-03-29T00:09:24;8.60;99.90
18103;DHT22;9178;51.120;6.192;2024-03-29T00:11:53;8.60;99.90
18103;DHT22;9178;51.120;6.192;2024-03-29T00:14:20;8.50;99.90
18103;DHT22;9178;51.120;6.192;2024-03-29T00:16:46;8.50;99.90
18103;DHT22;9178;51.120;6.192;2024-03-29T00:19:14;8.60;99.90
18103;DHT22;9178;51.120;6.192;2024-03-29T00:21:41;8.60;99.90
18103;DHT22;9178;51.120;6.192;2024-03-29T00:24:16;8.60;99.90
18103;DHT22;9178;51.120;6.192;2024-03-29T00:26:42;8.60;99.90
18103;DHT22;9178;51.120;6.192;2024-03-29T00:29:09;8.50;99.90
18103;DHT22;9178;51.120;6.192;2024-03-29T00:31:35;8.50;99.90
18103;DHT22;9178;51.120;6.192;2024-03-29T00:34:02;8.50;99.90
18103;DHT22;9178;51.120;6.192;2024-03-29T00:36:28;8.40;99.90
18103;DHT22;9178;51.120;6.192;2024-03-29T00:38:55;8.40;99.90
18103;DHT22;9178;51.120;6.192;2024-03-29T00:41:23;8.50;99.90
18103;DHT22;9178;51.120;6.192;2024-03-29T00:43:49;8.60;99.90
18103;DHT22;9178;51.120;6.192;2024-03-29T00:46:18;8.60;99.90
18103;DHT22;9178;51.120;6.192;2024-03-29T00:48:47;8.70;99.90
18103;DHT22;9178;51.120;6.192;2024-03-29T00:51:17;8.70;99.90
18103;DHT22;9178;51.120;6.192;2024-03-29T00:53:43;8.70;99.90
18103;DHT22;9178;51.120;6.192;2024-03-29T00:56:14;8.60;99.90
18103;DHT22;9178;51.120;6.192;2024-03-29T00:58:50;8.60;99.90
18103;DHT22;9178;51.120;6.192;2024-03-29T01:01:16;8.70;99.90
18103;DHT22;9178;51.120;6.192;2024-03-29T01:03:46;8.70;99.90
18103;DHT22;9178;51.120;6.192;2024-03-29T01:06:12;8.70;99.90
18103;DHT22;9178;51.120;6.192;2024-03-29T01:08:42;8.80;99.90
18103;DHT22;9178;51.120;6.192;2024-03-29T01:11:08;8.80;99.90
18103;DHT22;9178;51.120;6.192;2024-03-29T01:13:43;8.80;99.90
18103;DHT22;9178;51.120;6.192;2024-03-29T01:16:13;8.80;99.90
18103;DHT22;9178;51.120;6.192;2024-03-29T01:18:39;8.90;99.90
18103;DHT22;9178;51.120;6.192;2024-03-29T01:21:22;8.90;99.90
18103;DHT22;9178;51.120;6.192;2024-03-29T01:23:52;8.90;99.90
18103;DHT22;9178;51.120;6.192;2024-03-29T01:26:18;8.90;99.90
18103;DHT22;9178;51.120;6.192;2024-03-29T01:28:48;8.90;99.90
18103;DHT22;9178;51.120;6.192;2024-03-29T01:31:20;8.80;99.90
18103;DHT22;9178;51.120;6.192;2024-03-29T01:33:55;8.80;99.90
18103;DHT22;9178;51.120;6.192;2024-03-29T01:36:22;8.80;99.90
18103;DHT22;9178;51.120;6.192;2024-03-29T01:38:51;8.80;99.90
18103;DHT22;9178;51.120;6.192;2024-03-29T01:41:18;8.80;99.90
18103;DHT22;9178;51.120;6.192;2024-03-29T01:43:45;8.70;99.90
18103;DHT22;9178;51.120;6.192;2024-03-29T01:46:22;8.70;99.90
18103;DHT22;9178;51.120;6.192;2024-03-29T01:48:50;8.70;99.90
18103;DHT22;9178;51.120;6.192;2024-03-29T01:51:24;8.70;99.90
18103;DHT22;9178;51.120;6.192;2024-03-29T01:53:53;8.70;99.90
18103;DHT22;9178;51.120;6.192;2024-03-29T01:56:22;8.70;99.90
18103;DHT22;9178;51.120;6.192;2024-03-29T01:58:52;8.70;99.90
18103;DHT22;9178;51.120;6.192;2024-03-29T02:01:20;8.70;99.90
18103;DHT22;9178;51.120;6.192;2024-03-29T02:03:48;8.70;99.90
18103;DHT22;9178;51.120;6.192;2024-03-29T02:06:19;8.70;99.90
18103;DHT22;9178;51.120;6.192;2024-03-29T02:08:48;8.70;99.90
18103;DHT22;9178;51.120;6.192;2024-03-29T02:11:16;8.70;99.90
18103;DHT22;9178;51.120;6.192;2024-03-29T02:13:44;8.70;99.90
18103;DHT22;9178;51.120;6.192;2024-03-29T02:16:13;8.70;99.90
18103;DHT22;9178;51.120;6.192;2024-03-29T02:18:40;8.70;99.90
18103;DHT22;9178;51.120;6.192;2024-03-29T02:21:08;8.80;99.90
18103;DHT22;9178;51.120;6.192;2024-03-29T02:23:37;8.80;99.90
18103;DHT22;9178;51.120;6.192;2024-03-29T02:26:08;8.80;99.90
18103;DHT22;9178;51.120;6.192;2024-03-29T02:28:38;8.90;99.90
18103;DHT22;9178;51.120;6.192;2024-03-29T02:31:05;8.90;99.90
18103;DHT22;9178;51.120;6.192;2024-03-29T02:33:34;9.00;99.90
18103;DHT22;9178;51.120;6.192;2024-03-29T02:36:00;9.10;99.90
18103;DHT22;9178;51.120;6.192;2024-03-29T02:38:29;9.10;99.90
18103;DHT22;9178;51.120;6.192;2024-03-29T02:40:56;9.10;99.90
18103;DHT22;9178;51.120;6.192;2024-03-29T02:43:25;9.10;99.90
18103;DHT22;9178;51.120;6.192;2024-03-29T02:45:54;9.20;99.90
18103;DHT22;9178;51.120;6.192;2024-03-29T02:48:22;9.20;99.90
18103;DHT22;9178;51.120;6.192;2024-03-29T02:50:48;9.20;99.90
18103;DHT22;9178;51.120;6.192;2024-03-29T02:53:15;9.20;99.90
18103;DHT22;9178;51.120;6.192;2024-03-29T02:55:44;9.20;99.90
18103;DHT22;9178;51.120;6.192;2024-03-29T02:58:10;9.30;99.90
18103;DHT22;9178;51.120;6.192;2024-03-29T03:00:38;9.40;99.90
18103;DHT22;9178;51.120;6.192;2024-03-29T03:03:07;9.50;99.90
18103;DHT22;9178;51.120;6.192;2024-03-29T03:05:34;9.50;99.90
18103;DHT22;9178;51.120;6.192;2024-03-29T03:08:00;9.60;99.90
18103;DHT22;9178;51.120;6.192;2024-03-29T03:10:46;9.60;99.90
18103;DHT22;9178;51.120;6.192;2024-03-29T03:13:28;9.60;99.90
18103;DHT22;9178;51.120;6.192;2024-03-29T03:15:57;9.50;99.90
18103;DHT22;9178;51.120;6.192;2024-03-29T03:18:25;9.50;99.90
18103;DHT22;9178;51.120;6.192;2024-03-29T03:20:53;9.50;99.90
18103;DHT22;9178;51.120;6.192;2024-03-29T03:23:19;9.50;99.90
18103;DHT22;9178;51.120;6.192;2024-03-29T03:25:53;9.40;99.90
18103;DHT22;9178;51.120;6.192;2024-03-29T03:28:23;9.40;99.90
18103;DHT22;9178;51.120;6.192;2024-03-29T03:30:51;9.40;99.90
18103;DHT22;9178;51.120;6.192;2024-03-29T03:33:22;9.30;99.90
18103;DHT22;9178;51.120;6.192;2024-03-29T03:35:49;9.30;99.90
18103;DHT22;9178;51.120;6.192;2024-03-29T03:38:16;9.30;99.90
18103;DHT22;9178;51.120;6.192;2024-03-29T03:40:44;9.30;99.90
18103;DHT22;9178;51.120;6.192;2024-03-29T03:43:10;9.30;99.90
18103;DHT22;9178;51.120;6.192;2024-03-29T03:45:39;9.20;99.90
18103;DHT22;9178;51.120;6.192;2024-03-29T03:48:07;9.20;99.90
18103;DHT22;9178;51.120;6.192;2024-03-29T03:50:38;9.10;99.90
18103;DHT22;9178;51.120;6.192;2024-03-29T03:53:04;9.10;99.90
18103;DHT22;9178;51.120;6.192;2024-03-29T03:55:35;9.10;99.90
18103;DHT22;9178;51.120;6.192;2024-03-29T03:58:02;9.00;99.90
18103;DHT22;9178;51.120;6.192;2024-03-29T04:00:30;9.00;99.90
18103;DHT22;9178;51.120;6.192;2024-03-29T04:02:56;9.00;99.90
18103;DHT22;9178;51.120;6.192;2024-03-29T04:05:23;8.90;99.90
18103;DHT22;9178;51.120;6.192;2024-03-29T04:07:52;8.90;99.90
18103;DHT22;9178;51.120;6.192;2024-03-29T04:10:19;8.80;99.90
18103;DHT22;9178;51.120;6.192;2024-03-29T04:12:45;8.80;99.90
18103;DHT22;9178;51.120;6.192;2024-03-29T04:15:14;8.80;99.90
18103;DHT22;9178;51.120;6.192;2024-03-29T04:17:40;8.80;99.90
18103;DHT22;9178;51.120;6.192;2024-03-29T04:20:08;8.80;99.90
18103;DHT22;9178;51.120;6.192;2024-03-29T04:22:35;8.70;99.90
18103;DHT22;9178;51.120;6.192;2024-03-29T04:25:05;8.70;99.90
18103;DHT22;9178;51.120;6.192;2024-03-29T04:27:31;8.60;99.90
18103;DHT22;9178;51.120;6.192;2024-03-29T04:30:02;8.60;99.90
18103;DHT22;9178;51.120;6.192;2024-03-29T04:32:29;8.60;99.90
18103;DHT22;9178;51.120;6.192;2024-03-29T04:34:57;8.60;99.90
18103;DHT22;9178;51.120;6.192;2024-03-29T04:37:23;8.50;99.90
18103;DHT22;9178;51.120;6.192;2024-03-29T04:39:53;8.50;99.90
18103;DHT22;9178;51.120;6.192;2024-03-29T04:42:22;8.50;99.90
18103;DHT22;9178;51.120;6.192;2024-03-29T04:44:49;8.50;99.90
18103;DHT22;9178;51.120;6.192;2024-03-29T04:47:18;8.40;99.90
18103;DHT22;9178;51.120;6.192;2024-03-29T04:49:45;8.40;99.90
18103;DHT22;9178;51.120;6.192;2024-03-29T04:52:12;8.30;99.90
18103;DHT22;9178;51.120;6.192;2024-03-29T04:54:40;8.40;99.90
18103;DHT22;9178;51.120;6.192;2024-03-29T04:57:17;8.30;99.90
18103;DHT22;9178;51.120;6.192;2024-03-29T04:59:47;8.30;99.90
18103;DHT22;9178;51.120;6.192;2024-03-29T05:02:15;8.30;99.90
18103;DHT22;9178;51.120;6.192;2024-03-29T05:04:42;8.30;99.90
18103;DHT22;9178;51.120;6.192;2024-03-29T05:07:10;8.30;99.90
18103;DHT22;9178;51.120;6.192;2024-03-29T05:09:40;8.20;99.90
18103;DHT22;9178;51.120;6.192;2024-03-29T05:12:13;8.20;99.90
18103;DHT22;9178;51.120;6.192;2024-03-29T05:14:40;8.20;99.90
18103;DHT22;9178;51.120;6.192;2024-03-29T05:17:11;8.20;99.90
18103;DHT22;9178;51.120;6.192;2024-03-29T05:19:38;8.20;99.90
18103;DHT22;9178;51.120;6.192;2024-03-29T05:22:06;8.20;99.90
18103;DHT22;9178;51.120;6.192;2024-03-29T05:24:33;8.20;99.90
18103;DHT22;9178;51.120;6.192;2024-03-29T05:27:03;8.10;99.90
18103;DHT22;9178;51.120;6.192;2024-03-29T05:29:44;8.10;99.90
18103;DHT22;9178;51.120;6.192;2024-03-29T05:32:14;8.10;99.90
18103;DHT22;9178;51.120;6.192;2024-03-29T05:34:41;8.00;99.90
18103;DHT22;9178;51.120;6.192;2024-03-29T05:37:08;8.00;99.90
18103;DHT22;9178;51.120;6.192;2024-03-29T05:39:38;8.00;99.90
18103;DHT22;9178;51.120;6.192;2024-03-29T05:42:06;8.00;99.90
18103;DHT22;9178;51.120;6.192;2024-03-29T05:44:34;8.00;99.90
18103;DHT22;9178;51.120;6.192;2024-03-29T05:47:02;8.00;99.90
18103;DHT22;9178;51.120;6.192;2024-03-29T05:49:32;7.90;99.90
18103;DHT22;9178;51.120;6.192;2024-03-29T05:52:03;7.90;99.90
18103;DHT22;9178;51.120;6.192;2024-03-29T05:54:32;7.90;99.90
18103;DHT22;9178;51.120;6.192;2024-03-29T05:57:04;7.90;99.90
18103;DHT22;9178;51.120;6.192;2024-03-29T05:59:36;7.80;99.90
18103;DHT22;9178;51.120;6.192;2024-03-29T06:02:08;7.80;99.90
18103;DHT22;9178;51.120;6.192;2024-03-29T06:04:37;7.80;99.90
18103;DHT22;9178;51.120;6.192;2024-03-29T06:07:05;7.80;99.90
18103;DHT22;9178;51.120;6.192;2024-03-29T06:09:39;7.90;99.90
18103;DHT22;9178;51.120;6.192;2024-03-29T06:12:13;7.90;99.90
18103;DHT22;9178;51.120;6.192;2024-03-29T06:14:43;7.90;99.90
18103;DHT22;9178;51.120;6.192;2024-03-29T06:17:30;7.90;99.90
18103;DHT22;9178;51.120;6.192;2024-03-29T06:20:01;8.00;99.90
18103;DHT22;9178;51.120;6.192;2024-03-29T06:22:30;8.00;99.90
18103;DHT22;9178;51.120;6.192;2024-03-29T06:24:57;8.00;99.90
18103;DHT22;9178;51.120;6.192;2024-03-29T06:27:30;8.00;99.90
18103;DHT22;9178;51.120;6.192;2024-03-29T06:29:58;8.00;99.90
18103;DHT22;9178;51.120;6.192;2024-03-29T06:32:25;8.00;99.90
18103;DHT22;9178;51.120;6.192;2024-03-29T06:34:54;8.00;99.90
18103;DHT22;9178;51.120;6.192;2024-03-29T06:37:23;8.00;99.90
18103;DHT22;9178;51.120;6.192;2024-03-29T06:39:51;8.00;99.90
18103;DHT22;9178;51.120;6.192;2024-03-29T06:42:19;8.10;99.90
18103;DHT22;9178;51.120;6.192;2024-03-29T06:44:46;8.00;99.90
18103;DHT22;9178;51.120;6.192;2024-03-29T06:47:13;8.10;99.90
18103;DHT22;9178;51.120;6.192;2024-03-29T06:49:40;8.10;99.90
18103;DHT22;9178;51.120;6.192;2024-03-29T06:52:08;8.20;99.90
18103;DHT22;9178;51.120;6.192;2024-03-29T06:54:36;8.20;99.90
18103;DHT22;9178;51.120;6.192;2024-03-29T06:57:04;8.30;99.90
18103;DHT22;9178;51.120;6.192;2024-03-29T06:59:32;8.30;99.90
18103;DHT22;9178;51.120;6.192;2024-03-29T07:01:59;8.30;99.90
18103;DHT22;9178;51.120;6.192;2024-03-29T07:04:26;8.30;99.90
18103;DHT22;9178;51.120;6.192;2024-03-29T07:06:54;8.30;99.90
18103;DHT22;9178;51.120;6.192;2024-03-29T07:09:22;8.40;99.90
18103;DHT22;9178;51.120;6.192;2024-03-29T07:11:52;8.40;99.90
18103;DHT22;9178;51.120;6.192;2024-03-29T07:14:20;8.40;99.90
18103;DHT22;9178;51.120;6.192;2024-03-29T07:16:52;8.40;99.90
18103;DHT22;9178;51.120;6.192;2024-03-29T07:19:20;8.50;99.90
18103;DHT22;9178;51.120;6.192;2024-03-29T07:21:47;8.50;99.90
18103;DHT22;9178;51.120;6.192;2024-03-29T07:24:16;8.50;99.90
18103;DHT22;9178;51.120;6.192;2024-03-29T07:26:46;8.50;99.90
18103;DHT22;9178;51.120;6.192;2024-03-29T07:29:15;8.50;99.90
18103;DHT22;9178;51.120;6.192;2024-03-29T07:31:43;8.60;99.90
18103;DHT22;9178;51.120;6.192;2024-03-29T07:34:12;8.70;99.90
18103;DHT22;9178;51.120;6.192;2024-03-29T07:36:41;8.70;99.90
18103;DHT22;9178;51.120;6.192;2024-03-29T07:39:09;8.80;99.90
18103;DHT22;9178;51.120;6.192;2024-03-29T07:41:36;8.80;99.90
18103;DHT22;9178;51.120;6.192;2024-03-29T07:44:06;8.90;99.90
18103;DHT22;9178;51.120;6.192;2024-03-29T07:46:36;8.90;99.90
18103;DHT22;9178;51.120;6.192;2024-03-29T07:49:07;9.00;99.90
18103;DHT22;9178;51.120;6.192;2024-03-29T07:51:37;9.00;99.90
18103;DHT22;9178;51.120;6.192;2024-03-29T07:54:05;9.10;99.90
18103;DHT22;9178;51.120;6.192;2024-03-29T07:56:32;9.10;99.90
18103;DHT22;9178;51.120;6.192;2024-03-29T07:58:59;9.20;99.90
18103;DHT22;9178;51.120;6.192;2024-03-29T08:01:30;9.20;99.90
18103;DHT22;9178;51.120;6.192;2024-03-29T08:03:59;9.30;99.90
18103;DHT22;9178;51.120;6.192;2024-03-29T08:06:29;9.30;99.90
18103;DHT22;9178;51.120;6.192;2024-03-29T08:08:58;9.40;99.90
18103;DHT22;9178;51.120;6.192;2024-03-29T08:11:25;9.40;99.90
18103;DHT22;9178;51.120;6.192;2024-03-29T08:13:52;9.50;99.90
18103;DHT22;9178;51.120;6.192;2024-03-29T08:16:19;9.50;99.90
18103;DHT22;9178;51.120;6.192;2024-03-29T08:18:50;9.50;99.90
18103;DHT22;9178;51.120;6.192;2024-03-29T08:21:19;9.50;99.90
18103;DHT22;9178;51.120;6.192;2024-03-29T08:23:46;9.60;99.90
18103;DHT22;9178;51.120;6.192;2024-03-29T08:26:15;9.60;99.90
18103;DHT22;9178;51.120;6.192;2024-03-29T08:28:45;9.70;99.90
18103;DHT22;9178;51.120;6.192;2024-03-29T08:31:13;9.80;99.90
18103;DHT22;9178;51.120;6.192;2024-03-29T08:33:40;9.90;99.90
18103;DHT22;9178;51.120;6.192;2024-03-29T08:36:09;10.00;99.90
18103;DHT22;9178;51.120;6.192;2024-03-29T08:38:38;10.10;99.90
18103;DHT22;9178;51.120;6.192;2024-03-29T08:41:08;10.20;99.90
18103;DHT22;9178;51.120;6.192;2024-03-29T08:43:35;10.20;99.90
18103;DHT22;9178;51.120;6.192;2024-03-29T08:46:03;10.30;99.90
18103;DHT22;9178;51.120;6.192;2024-03-29T08:48:31;10.30;99.90
18103;DHT22;9178;51.120;6.192;2024-03-29T08:50:59;10.40;99.90
18103;DHT22;9178;51.120;6.192;2024-03-29T08:53:26;10.50;99.90
18103;DHT22;9178;51.120;6.192;2024-03-29T08:55:54;10.70;99.90
18103;DHT22;9178;51.120;6.192;2024-03-29T08:58:22;10.90;99.90
18103;DHT22;9178;51.120;6.192;2024-03-29T09:00:53;11.10;99.90
18103;DHT22;9178;51.120;6.192;2024-03-29T09:03:21;11.20;99.90
18103;DHT22;9178;51.120;6.192;2024-03-29T09:05:50;11.40;99.90
18103;DHT22;9178;51.120;6.192;2024-03-29T09:08:18;11.50;99.90
18103;DHT22;9178;51.120;6.192;2024-03-29T09:10:45;11.70;99.90
18103;DHT22;9178;51.120;6.192;2024-03-29T09:13:14;11.90;99.90
18103;DHT22;9178;51.120;6.192;2024-03-29T09:15:43;12.00;99.90
18103;DHT22;9178;51.120;6.192;2024-03-29T09:18:11;12.20;99.90
18103;DHT22;9178;51.120;6.192;2024-03-29T09:20:56;12.30;99.90
18103;DHT22;9178;51.120;6.192;2024-03-29T09:23:25;12.40;99.90
18103;DHT22;9178;51.120;6.192;2024-03-29T09:25:53;12.50;99.90
18103;DHT22;9178;51.120;6.192;2024-03-29T09:28:23;12.60;99.90
18103;DHT22;9178;51.120;6.192;2024-03-29T09:30:57;12.60;99.90
18103;DHT22;9178;51.120;6.192;2024-03-29T09:33:26;12.60;99.90
18103;DHT22;9178;51.120;6.192;2024-03-29T09:35:53;12.70;99.90
18103;DHT22;9178;51.120;6.192;2024-03-29T09:38:28;12.80;99.90
18103;DHT22;9178;51.120;6.192;2024-03-29T09:41:10;12.90;99.90
18103;DHT22;9178;51.120;6.192;2024-03-29T09:43:42;13.10;99.90
18103;DHT22;9178;51.120;6.192;2024-03-29T09:46:11;13.20;99.90
18103;DHT22;9178;51.120;6.192;2024-03-29T09:48:40;13.30;99.90
18103;DHT22;9178;51.120;6.192;2024-03-29T09:51:09;13.40;99.90
18103;DHT22;9178;51.120;6.192;2024-03-29T09:53:42;13.30;99.90
18103;DHT22;9178;51.120;6.192;2024-03-29T09:56:12;13.30;99.90
18103;DHT22;9178;51.120;6.192;2024-03-29T09:58:42;13.30;99.90
18103;DHT22;9178;51.120;6.192;2024-03-29T10:01:10;13.20;99.90
18103;DHT22;9178;51.120;6.192;2024-03-29T10:03:41;13.10;99.90
18103;DHT22;9178;51.120;6.192;2024-03-29T10:06:10;13.20;99.90
18103;DHT22;9178;51.120;6.192;2024-03-29T10:08:40;13.10;99.90
18103;DHT22;9178;51.120;6.192;2024-03-29T10:11:07;13.20;99.90
18103;DHT22;9178;51.120;6.192;2024-03-29T10:13:34;13.20;99.90
18103;DHT22;9178;51.120;6.192;2024-03-29T10:16:09;13.30;99.90
18103;DHT22;9178;51.120;6.192;2024-03-29T10:18:48;13.40;99.90
18103;DHT22;9178;51.120;6.192;2024-03-29T10:21:29;13.50;99.90
18103;DHT22;9178;51.120;6.192;2024-03-29T10:23:56;13.70;99.90
18103;DHT22;9178;51.120;6.192;2024-03-29T10:26:25;13.80;99.90
18103;DHT22;9178;51.120;6.192;2024-03-29T10:28:55;13.90;99.90
18103;DHT22;9178;51.120;6.192;2024-03-29T10:31:23;14.10;99.90
18103;DHT22;9178;51.120;6.192;2024-03-29T10:33:51;14.40;99.90
18103;DHT22;9178;51.120;6.192;2024-03-29T10:36:30;14.60;99.90
18103;DHT22;9178;51.120;6.192;2024-03-29T10:39:02;14.90;99.90
18103;DHT22;9178;51.120;6.192;2024-03-29T10:41:40;15.00;99.90
18103;DHT22;9178;51.120;6.192;2024-03-29T10:44:09;14.90;99.90
18103;DHT22;9178;51.120;6.192;2024-03-29T10:46:48;14.90;99.90
18103;DHT22;9178;51.120;6.192;2024-03-29T10:49:18;15.00;99.90
18103;DHT22;9178;51.120;6.192;2024-03-29T10:51:53;15.30;99.90
18103;DHT22;9178;51.120;6.192;2024-03-29T10:54:23;15.60;99.90
18103;DHT22;9178;51.120;6.192;2024-03-29T10:57:06;15.70;99.90
18103;DHT22;9178;51.120;6.192;2024-03-29T10:59:44;15.60;99.90
18103;DHT22;9178;51.120;6.192;2024-03-29T11:02:17;15.50;99.90
18103;DHT22;9178;51.120;6.192;2024-03-29T11:04:54;15.30;99.90
18103;DHT22;9178;51.120;6.192;2024-03-29T11:07:22;15.40;99.90
18103;DHT22;9178;51.120;6.192;2024-03-29T11:09:52;15.40;99.90
18103;DHT22;9178;51.120;6.192;2024-03-29T11:12:24;15.40;99.90
18103;DHT22;9178;51.120;6.192;2024-03-29T11:15:00;15.30;99.90
18103;DHT22;9178;51.120;6.192;2024-03-29T11:17:34;15.20;99.90
18103;DHT22;9178;51.120;6.192;2024-03-29T11:20:02;15.20;99.90
18103;DHT22;9178;51.120;6.192;2024-03-29T11:22:30;15.20;99.90
18103;DHT22;9178;51.120;6.192;2024-03-29T11:25:01;15.20;99.90
18103;DHT22;9178;51.120;6.192;2024-03-29T11:27:29;15.20;99.90
18103;DHT22;9178;51.120;6.192;2024-03-29T11:29:57;15.40;99.90
18103;DHT22;9178;51.120;6.192;2024-03-29T11:32:37;15.70;99.90
18103;DHT22;9178;51.120;6.192;2024-03-29T11:35:13;15.90;99.90
18103;DHT22;9178;51.120;6.192;2024-03-29T11:37:42;16.00;99.90
18103;DHT22;9178;51.120;6.192;2024-03-29T11:40:11;16.10;99.90
18103;DHT22;9178;51.120;6.192;2024-03-29T11:42:48;16.20;99.90
18103;DHT22;9178;51.120;6.192;2024-03-29T11:45:16;16.00;99.90
18103;DHT22;9178;51.120;6.192;2024-03-29T11:47:46;16.00;99.90
18103;DHT22;9178;51.120;6.192;2024-03-29T11:50:14;16.10;99.90
18103;DHT22;9178;51.120;6.192;2024-03-29T11:52:43;16.10;99.90
18103;DHT22;9178;51.120;6.192;2024-03-29T11:55:11;16.20;99.90
18103;DHT22;9178;51.120;6.192;2024-03-29T11:57:44;16.10;99.90
18103;DHT22;9178;51.120;6.192;2024-03-29T12:00:13;15.90;99.90
18103;DHT22;9178;51.120;6.192;2024-03-29T12:02:44;15.70;99.90
18103;DHT22;9178;51.120;6.192;2024-03-29T12:05:13;15.60;99.90
18103;DHT22;9178;51.120;6.192;2024-03-29T12:07:45;15.60;99.90
18103;DHT22;9178;51.120;6.192;2024-03-29T12:10:13;15.60;99.90
18103;DHT22;9178;51.120;6.192;2024-03-29T12:12:40;15.50;99.90
18103;DHT22;9178;51.120;6.192;2024-03-29T12:15:09;15.50;99.90
18103;DHT22;9178;51.120;6.192;2024-03-29T12:17:37;15.50;99.90
18103;DHT22;9178;51.120;6.192;2024-03-29T12:20:10;15.70;99.90
18103;DHT22;9178;51.120;6.192;2024-03-29T12:22:38;15.90;99.90
18103;DHT22;9178;51.120;6.192;2024-03-29T12:25:08;16.10;99.90
18103;DHT22;9178;51.120;6.192;2024-03-29T12:27:35;16.10;99.90
18103;DHT22;9178;51.120;6.192;2024-03-29T12:30:04;15.90;99.90
18103;DHT22;9178;51.120;6.192;2024-03-29T12:32:32;15.80;99.90
18103;DHT22;9178;51.120;6.192;2024-03-29T12:35:10;15.90;99.90
18103;DHT22;9178;51.120;6.192;2024-03-29T12:37:46;16.30;99.90
18103;DHT22;9178;51.120;6.192;2024-03-29T12:40:16;16.70;99.90
18103;DHT22;9178;51.120;6.192;2024-03-29T12:42:50;16.90;99.90
18103;DHT22;9178;51.120;6.192;2024-03-29T12:45:23;16.90;99.90
18103;DHT22;9178;51.120;6.192;2024-03-29T12:47:51;16.90;99.90
18103;DHT22;9178;51.120;6.192;2024-03-29T12:50:26;17.00;99.90
18103;DHT22;9178;51.120;6.192;2024-03-29T12:52:54;17.10;99.90
18103;DHT22;9178;51.120;6.192;2024-03-29T12:55:23;17.40;99.90
18103;DHT22;9178;51.120;6.192;2024-03-29T12:57:50;17.50;99.90
18103;DHT22;9178;51.120;6.192;2024-03-29T13:00:20;17.40;99.90
18103;DHT22;9178;51.120;6.192;2024-03-29T13:02:48;17.30;99.90
18103;DHT22;9178;51.120;6.192;2024-03-29T13:05:15;17.00;99.90
18103;DHT22;9178;51.120;6.192;2024-03-29T13:07:44;16.70;99.90
18103;DHT22;9178;51.120;6.192;2024-03-29T13:10:11;16.60;99.90
18103;DHT22;9178;51.120;6.192;2024-03-29T13:12:47;16.40;99.90
18103;DHT22;9178;51.120;6.192;2024-03-29T13:15:19;16.60;99.90
18103;DHT22;9178;51.120;6.192;2024-03-29T13:17:47;16.90;99.90
18103;DHT22;9178;51.120;6.192;2024-03-29T13:20:15;17.40;99.90
18103;DHT22;9178;51.120;6.192;2024-03-29T13:22:45;17.90;99.90
18103;DHT22;9178;51.120;6.192;2024-03-29T13:25:15;18.20;99.90
18103;DHT22;9178;51.120;6.192;2024-03-29T13:27:43;18.50;99.90
18103;DHT22;9178;51.120;6.192;2024-03-29T13:30:14;18.60;99.90
18103;DHT22;9178;51.120;6.192;2024-03-29T13:32:42;18.40;99.90
18103;DHT22;9178;51.120;6.192;2024-03-29T13:35:10;18.40;99.90
18103;DHT22;9178;51.120;6.192;2024-03-29T13:37:41;18.50;99.90
18103;DHT22;9178;51.120;6.192;2024-03-29T13:40:13;18.80;99.90
18103;DHT22;9178;51.120;6.192;2024-03-29T13:42:43;19.20;99.90
18103;DHT22;9178;51.120;6.192;2024-03-29T13:45:11;19.80;99.90
18103;DHT22;9178;51.120;6.192;2024-03-29T13:47:41;20.00;99.90
18103;DHT22;9178;51.120;6.192;2024-03-29T13:50:11;20.00;99.90
18103;DHT22;9178;51.120;6.192;2024-03-29T13:52:41;19.60;99.90
18103;DHT22;9178;51.120;6.192;2024-03-29T13:55:09;19.00;99.90
18103;DHT22;9178;51.120;6.192;2024-03-29T13:57:39;18.80;99.90
18103;DHT22;9178;51.120;6.192;2024-03-29T14:00:07;18.80;99.90
18103;DHT22;9178;51.120;6.192;2024-03-29T14:02:39;19.00;99.90
18103;DHT22;9178;51.120;6.192;2024-03-29T14:05:06;19.20;99.90
18103;DHT22;9178;51.120;6.192;2024-03-29T14:07:33;19.60;99.90
18103;DHT22;9178;51.120;6.192;2024-03-29T14:10:01;19.60;99.90
18103;DHT22;9178;51.120;6.192;2024-03-29T14:12:30;19.50;99.90
18103;DHT22;9178;51.120;6.192;2024-03-29T14:14:59;19.60;99.90
18103;DHT22;9178;51.120;6.192;2024-03-29T14:17:27;19.40;99.90
18103;DHT22;9178;51.120;6.192;2024-03-29T14:19:55;19.30;99.90
18103;DHT22;9178;51.120;6.192;2024-03-29T14:22:22;19.00;99.90
18103;DHT22;9178;51.120;6.192;2024-03-29T14:24:50;18.70;99.90
18103;DHT22;9178;51.120;6.192;2024-03-29T14:27:17;18.80;99.90
18103;DHT22;9178;51.120;6.192;2024-03-29T14:29:45;18.90;99.90
18103;DHT22;9178;51.120;6.192;2024-03-29T14:32:14;19.10;99.90
18103;DHT22;9178;51.120;6.192;2024-03-29T14:34:48;19.10;99.90
18103;DHT22;9178;51.120;6.192;2024-03-29T14:37:18;18.80;99.90
18103;DHT22;9178;51.120;6.192;2024-03-29T14:39:45;18.50;99.90
18103;DHT22;9178;51.120;6.192;2024-03-29T14:42:23;18.50;99.90
18103;DHT22;9178;51.120;6.192;2024-03-29T14:44:50;18.80;99.90
18103;DHT22;9178;51.120;6.192;2024-03-29T14:47:19;19.10;99.90
18103;DHT22;9178;51.120;6.192;2024-03-29T14:49:50;19.10;99.90
18103;DHT22;9178;51.120;6.192;2024-03-29T14:52:17;18.70;99.90
18103;DHT22;9178;51.120;6.192;2024-03-29T14:54:44;18.50;99.90
18103;DHT22;9178;51.120;6.192;2024-03-29T14:57:15;18.20;99.90
18103;DHT22;9178;51.120;6.192;2024-03-29T14:59:44;18.20;99.90
18103;DHT22;9178;51.120;6.192;2024-03-29T15:02:11;18.30;99.90
18103;DHT22;9178;51.120;6.192;2024-03-29T15:04:40;18.10;99.90
18103;DHT22;9178;51.120;6.192;2024-03-29T15:07:08;17.90;99.90
18103;DHT22;9178;51.120;6.192;2024-03-29T15:09:35;17.80;99.90
18103;DHT22;9178;51.120;6.192;2024-03-29T15:12:03;17.80;99.90
18103;DHT22;9178;51.120;6.192;2024-03-29T15:14:31;17.90;99.90
18103;DHT22;9178;51.120;6.192;2024-03-29T15:17:00;17.90;99.90
18103;DHT22;9178;51.120;6.192;2024-03-29T15:19:28;17.90;99.90
18103;DHT22;9178;51.120;6.192;2024-03-29T15:21:56;17.80;99.90
18103;DHT22;9178;51.120;6.192;2024-03-29T15:24:23;17.80;99.90
18103;DHT22;9178;51.120;6.192;2024-03-29T15:26:51;17.70;99.90
18103;DHT22;9178;51.120;6.192;2024-03-29T15:29:24;17.40;99.90
18103;DHT22;9178;51.120;6.192;2024-03-29T15:31:50;17.20;99.90
18103;DHT22;9178;51.120;6.192;2024-03-29T15:34:18;17.20;99.90
18103;DHT22;9178;51.120;6.192;2024-03-29T15:36:45;17.10;99.90
18103;DHT22;9178;51.120;6.192;2024-03-29T15:39:14;17.00;99.90
18103;DHT22;9178;51.120;6.192;2024-03-29T15:41:45;16.90;99.90
18103;DHT22;9178;51.120;6.192;2024-03-29T15:44:15;16.80;99.90
18103;DHT22;9178;51.120;6.192;2024-03-29T15:46:49;16.60;99.90
18103;DHT22;9178;51.120;6.192;2024-03-29T15:49:16;16.60;99.90
18103;DHT22;9178;51.120;6.192;2024-03-29T15:51:43;16.50;99.90
18103;DHT22;9178;51.120;6.192;2024-03-29T15:54:10;16.50;99.90
18103;DHT22;9178;51.120;6.192;2024-03-29T15:56:44;16.40;99.90
18103;DHT22;9178;51.120;6.192;2024-03-29T15:59:11;16.40;99.90
18103;DHT22;9178;51.120;6.192;2024-03-29T16:01:38;16.40;99.90
18103;DHT22;9178;51.120;6.192;2024-03-29T16:04:09;16.40;99.90
18103;DHT22;9178;51.120;6.192;2024-03-29T16:06:37;16.30;99.90
18103;DHT22;9178;51.120;6.192;2024-03-29T16:09:04;16.20;99.90